Huvudsida
METAR-TAF:

METAR-TAF

Flygplatser :

Luganos flygplats

Lugano, Schweiz

latitud: 46-00N, longitud: 008-58E, höjd: 273 m

Aktuellt väderrapport

Denna rapport gjordes för 24 minuter sedan, klockan 07:50 UTC
Vind 1 kt varierande vindriktning
Temperatur 10°C
Fuktighet 66%
Tryck 1026 hPa
Sikt 10 km eller mer
Brutna moln på en höjd av 6700 ft

METAR: LSZA 050750Z VRB01KT 9999 BKN067 10/04 Q1026 NOSIG

Tid: 10:14 (08:14 UTC)

Väderprognos

Denna rapport gjordes för 2 timmar och 49 minuter sedan, klockan 05:25 UTC
Prognos gäller från 05 kl. 06 UTC till 05 kl. 15 UTC
Vind 2 kt varierande vindriktning
Sikt 10 km eller mer
Brutna moln på en höjd av 6000 ft
Blir
från 05 kl. 12 UTC till 05 kl. 15 UTC
Sikt 10 km eller mer
Inga moln under 1 500 m eller inga cumulonimbus

TAF: LSZA 050525Z 0506/0515 VRB02KT 9999 BKN060 BECMG 0512/0515 CAVOK

Aktuella väderrapporter och prognoser från 4000 flygplatser (METAR- och TAF-rapporter).

De tillgängliga stationerna syns som gula och röda prickar på kartan.

För musen över prickarna för att se namnen på stationerna.

Klicka sedan för att få väderrapporter och prognoser.

För att ändra kartan: Klicka på de gröna knapparna med ett svart kors på för att zooma in; den gröna knappen med ett streck på för att zooma ut; eller på de gröna pilarna för angränsande kartor.


METAR-TAF: